Time;durP1;ratioP1;P1;durP2;ratioP2;P2;SDS_P1;SDS_P2;PMS_P1;PMS_P2;Temp;Humidity;BMP_temperature;BMP_pressure;BME280_temperature;BME280_humidity;BME280_pressure;Samples;Min_cycle;Max_cycle;Signal;HPM_P1;HPM_P2
2023/05/26 00:01:14;;;;;;;4.65;2.92;;;13.70;99.90;;;;;;5053727;28;20197;-66
2023/05/26 00:03:44;;;;;;;4.38;2.70;;;13.70;99.90;;;;;;5049008;28;20212;-66
2023/05/26 00:06:15;;;;;;;4.78;2.90;;;13.60;99.90;;;;;;5053812;28;20170;-66
2023/05/26 00:08:41;;;;;;;3.85;2.97;;;13.60;99.90;;;;;;5056597;28;20217;-65
2023/05/26 00:11:07;;;;;;;4.10;2.53;;;13.60;99.90;;;;;;5056479;28;20264;-66
2023/05/26 00:13:35;;;;;;;4.53;3.20;;;13.60;99.90;;;;;;5056426;28;20192;-65
2023/05/26 00:16:01;;;;;;;4.65;3.05;;;13.50;99.90;;;;;;5041097;28;20197;-66
2023/05/26 00:18:27;;;;;;;4.93;3.10;;;13.50;99.90;;;;;;5056243;28;20200;-65
2023/05/26 00:20:53;;;;;;;4.18;2.60;;;13.50;99.90;;;;;;5051542;28;20178;-66
2023/05/26 00:23:24;;;;;;;4.63;2.80;;;13.50;99.90;;;;;;5056720;28;20177;-66
2023/05/26 00:25:52;;;;;;;4.60;2.85;;;13.40;99.90;;;;;;5058748;28;20349;-66
2023/05/26 00:28:20;;;;;;;4.70;3.28;;;13.40;99.90;;;;;;5053728;28;20205;-66
2023/05/26 00:30:45;;;;;;;4.25;2.90;;;13.40;99.90;;;;;;5055486;28;20186;-66
2023/05/26 00:33:13;;;;;;;7.07;4.18;;;13.30;99.90;;;;;;5053738;28;20228;-65
2023/05/26 00:35:39;;;;;;;5.10;3.67;;;13.30;99.90;;;;;;5054718;28;20469;-66
2023/05/26 00:38:05;;;;;;;6.60;3.80;;;13.20;99.90;;;;;;5055333;28;20173;-66
2023/05/26 00:40:34;;;;;;;5.88;3.97;;;13.20;99.90;;;;;;5055826;28;20252;-64
2023/05/26 00:43:01;;;;;;;7.55;3.47;;;13.20;99.90;;;;;;5055001;28;20173;-65
2023/05/26 00:45:32;;;;;;;4.95;3.65;;;13.20;99.90;;;;;;5053755;28;20166;-63
2023/05/26 00:47:59;;;;;;;5.65;3.50;;;13.10;99.90;;;;;;5063925;28;20169;-63
2023/05/26 00:50:27;;;;;;;5.00;3.35;;;13.10;99.90;;;;;;5052127;28;20198;-65
2023/05/26 00:52:53;;;;;;;5.57;2.97;;;13.00;99.90;;;;;;5055174;28;20193;-65
2023/05/26 00:55:20;;;;;;;4.78;3.30;;;13.00;99.90;;;;;;5055508;28;20188;-65
2023/05/26 00:57:46;;;;;;;4.68;3.10;;;13.00;99.90;;;;;;5055496;28;20209;-65
2023/05/26 01:00:19;;;;;;;3.45;3.15;;;13.00;99.90;;;;;;5052022;28;20243;-65
2023/05/26 01:02:50;;;;;;;4.13;3.22;;;12.90;99.90;;;;;;5044756;28;20177;-65
2023/05/26 01:05:17;;;;;;;5.40;3.70;;;12.90;99.90;;;;;;5049109;28;20243;-65
2023/05/26 01:07:42;;;;;;;5.82;3.58;;;12.90;99.90;;;;;;5055770;28;20228;-65
2023/05/26 01:10:09;;;;;;;4.57;3.28;;;12.80;99.90;;;;;;5052130;28;20210;-64
2023/05/26 01:12:44;;;;;;;5.00;3.25;;;12.80;99.90;;;;;;5053375;28;20208;-65
2023/05/26 01:15:21;;;;;;;5.35;3.53;;;12.70;99.90;;;;;;5046558;28;20180;-65
2023/05/26 01:17:58;;;;;;;5.68;3.22;;;12.70;99.90;;;;;;5048227;28;20181;-65
2023/05/26 01:20:45;;;;;;;4.10;3.28;;;12.60;99.90;;;;;;5050904;28;20211;-66
2023/05/26 01:24:05;;;;;;;4.40;2.92;;;12.60;99.90;;;;;;5041470;28;20173;-65
2023/05/26 01:26:58;;;;;;;4.53;3.20;;;12.50;99.90;;;;;;4997621;28;20199;-66
2023/05/26 01:29:29;;;;;;;3.80;3.13;;;12.50;99.90;;;;;;5055115;28;20197;-65
2023/05/26 01:32:12;;;;;;;7.00;3.55;;;12.40;99.90;;;;;;5051059;28;20182;-64
2023/05/26 01:34:40;;;;;;;3.92;2.97;;;12.40;99.90;;;;;;5054444;28;20177;-65
2023/05/26 01:37:06;;;;;;;6.28;3.08;;;12.30;99.90;;;;;;5055073;28;20188;-65
2023/05/26 01:39:32;;;;;;;7.18;3.22;;;12.40;99.90;;;;;;5054249;28;20193;-66
2023/05/26 01:42:22;;;;;;;4.40;3.20;;;12.30;99.90;;;;;;5054884;28;20181;-65
2023/05/26 01:44:58;;;;;;;4.22;3.20;;;12.30;99.90;;;;;;5053209;28;20181;-64
2023/05/26 01:47:32;;;;;;;4.95;2.97;;;12.30;99.90;;;;;;5046811;28;20193;-64
2023/05/26 01:50:04;;;;;;;5.22;3.58;;;12.30;99.90;;;;;;5054681;28;20208;-61
2023/05/26 01:52:31;;;;;;;7.35;3.78;;;12.20;99.90;;;;;;5053663;28;20185;-64
2023/05/26 01:55:15;;;;;;;4.93;3.53;;;12.20;99.90;;;;;;5051295;28;20173;-65
2023/05/26 01:57:45;;;;;;;5.40;3.78;;;12.20;99.90;;;;;;5050556;28;20173;-66
2023/05/26 02:00:12;;;;;;;5.28;3.67;;;12.10;99.90;;;;;;5050544;28;20181;-67
2023/05/26 02:02:40;;;;;;;6.85;3.80;;;12.10;99.90;;;;;;5054015;28;20173;-62
2023/05/26 02:05:06;;;;;;;4.38;3.92;;;12.10;99.90;;;;;;5056515;28;20200;-66
2023/05/26 02:07:40;;;;;;;5.93;3.80;;;12.10;99.90;;;;;;5053563;28;20201;-66
2023/05/26 02:10:07;;;;;;;6.25;3.90;;;12.00;99.90;;;;;;5053373;28;20212;-67
2023/05/26 02:12:32;;;;;;;5.18;3.40;;;12.00;99.90;;;;;;5050164;28;20173;-67
2023/05/26 02:15:00;;;;;;;5.80;3.30;;;12.00;99.90;;;;;;5052034;28;20197;-65
2023/05/26 02:17:28;;;;;;;4.95;3.40;;;11.90;99.90;;;;;;5053978;28;20170;-67
2023/05/26 02:19:54;;;;;;;5.53;3.75;;;11.90;99.90;;;;;;5044584;28;20182;-67
2023/05/26 02:22:19;;;;;;;5.82;3.67;;;11.90;99.90;;;;;;5049917;28;20197;-65
2023/05/26 02:24:45;;;;;;;6.07;3.60;;;11.90;99.90;;;;;;5050241;28;20276;-64
2023/05/26 02:27:13;;;;;;;5.85;3.75;;;11.80;99.90;;;;;;5051261;28;20177;-66
2023/05/26 02:29:40;;;;;;;7.55;3.75;;;11.80;99.90;;;;;;5052903;28;20260;-66
2023/05/26 02:32:08;;;;;;;5.88;3.67;;;11.90;99.90;;;;;;5053631;28;20208;-65
2023/05/26 02:34:34;;;;;;;7.07;3.80;;;11.80;99.90;;;;;;5054195;28;20176;-67
2023/05/26 02:37:00;;;;;;;6.70;4.03;;;11.80;99.90;;;;;;5053582;28;20183;-66
2023/05/26 02:39:28;;;;;;;6.13;4.07;;;11.80;99.90;;;;;;5048670;28;20350;-65
2023/05/26 02:41:54;;;;;;;8.98;3.28;;;11.70;99.90;;;;;;5052804;28;20234;-66
2023/05/26 02:44:20;;;;;;;6.03;3.72;;;11.70;99.90;;;;;;5069507;28;20173;-66
2023/05/26 02:46:45;;;;;;;5.65;3.15;;;11.70;99.90;;;;;;5053971;28;20342;-66
2023/05/26 02:49:13;;;;;;;4.57;3.17;;;11.60;99.90;;;;;;5050026;28;20300;-65
2023/05/26 02:51:38;;;;;;;5.18;3.05;;;11.60;99.90;;;;;;5048287;28;20180;-66
2023/05/26 02:54:04;;;;;;;5.68;3.20;;;11.60;99.90;;;;;;5053553;28;20177;-65
2023/05/26 02:56:30;;;;;;;6.07;3.55;;;11.60;99.90;;;;;;5050209;28;20226;-65
2023/05/26 02:58:55;;;;;;;7.20;3.38;;;11.50;99.90;;;;;;5052815;28;20174;-66
2023/05/26 03:01:24;;;;;;;7.40;3.25;;;11.60;99.90;;;;;;5049435;28;20268;-59
2023/05/26 03:03:50;;;;;;;6.13;3.55;;;11.50;99.90;;;;;;5053250;28;20209;-64
2023/05/26 03:06:16;;;;;;;9.18;3.72;;;11.50;99.90;;;;;;5049918;28;20248;-66
2023/05/26 03:08:42;;;;;;;7.32;3.50;;;11.50;99.90;;;;;;5053561;28;20220;-66
2023/05/26 03:11:10;;;;;;;6.67;3.57;;;11.40;99.90;;;;;;5052821;28;20302;-66
2023/05/26 03:13:35;;;;;;;5.97;3.47;;;11.40;99.90;;;;;;5052601;28;20170;-66
2023/05/26 03:16:04;;;;;;;7.35;3.45;;;11.40;99.90;;;;;;5061459;28;20189;-65
2023/05/26 03:18:30;;;;;;;8.18;3.28;;;11.40;99.90;;;;;;5046417;28;20200;-66
2023/05/26 03:20:55;;;;;;;8.80;3.60;;;11.30;99.90;;;;;;5053760;28;20276;-66
2023/05/26 03:23:21;;;;;;;4.90;3.20;;;11.30;99.90;;;;;;5053266;28;20177;-66
2023/05/26 03:25:49;;;;;;;23.15;13.32;;;11.30;99.90;;;;;;5052957;28;20259;-66
2023/05/26 03:28:15;;;;;;;11.10;5.03;;;11.40;99.90;;;;;;5054012;28;20212;-67
2023/05/26 03:30:42;;;;;;;10.48;4.40;;;11.30;99.90;;;;;;5040984;28;20244;-67
2023/05/26 03:33:08;;;;;;;10.35;3.78;;;11.30;99.90;;;;;;5064542;28;20202;-67
2023/05/26 03:35:36;;;;;;;7.28;3.65;;;11.30;99.90;;;;;;5053631;28;20213;-67
2023/05/26 03:38:02;;;;;;;8.60;3.37;;;11.30;99.90;;;;;;5047916;28;20179;-67
2023/05/26 03:40:27;;;;;;;10.48;5.80;;;11.30;99.90;;;;;;5053074;28;20175;-68
2023/05/26 03:42:55;;;;;;;12.95;5.88;;;11.30;99.90;;;;;;5056409;28;20169;-68
2023/05/26 03:45:21;;;;;;;12.10;5.30;;;11.30;99.90;;;;;;5056963;28;20229;-67
2023/05/26 03:47:46;;;;;;;9.45;3.65;;;11.30;99.90;;;;;;5057601;28;20203;-68
2023/05/26 03:50:15;;;;;;;10.77;3.45;;;11.30;99.90;;;;;;5062080;28;20245;-67
2023/05/26 03:52:43;;;;;;;6.78;3.25;;;11.30;99.90;;;;;;5056766;28;20177;-68
2023/05/26 03:55:10;;;;;;;8.90;3.28;;;11.30;99.90;;;;;;5056545;28;20173;-68
2023/05/26 03:57:36;;;;;;;18.00;11.23;;;11.30;99.90;;;;;;5054230;28;20180;-69
2023/05/26 04:00:04;;;;;;;10.23;5.68;;;11.30;99.90;;;;;;5059364;28;20216;-68
2023/05/26 04:02:29;;;;;;;13.38;5.38;;;11.30;99.90;;;;;;5058476;28;20208;-67
2023/05/26 04:04:57;;;;;;;10.13;4.28;;;11.30;99.90;;;;;;5057660;28;20200;-67
2023/05/26 04:07:23;;;;;;;8.90;3.45;;;11.30;99.90;;;;;;5093484;28;20258;-67
2023/05/26 04:09:49;;;;;;;7.18;3.28;;;11.30;99.90;;;;;;5082174;28;20197;-68
2023/05/26 04:12:14;;;;;;;10.80;3.13;;;11.30;99.90;;;;;;5069082;28;21716;-69
2023/05/26 04:14:40;;;;;;;10.90;2.70;;;11.40;99.90;;;;;;5052392;28;20282;-67
2023/05/26 04:17:06;;;;;;;7.72;3.20;;;11.30;99.90;;;;;;5055525;28;20177;-67
2023/05/26 04:19:31;;;;;;;7.70;2.90;;;11.40;99.90;;;;;;5055450;28;20182;-67
2023/05/26 04:21:57;;;;;;;7.45;2.80;;;11.40;99.90;;;;;;5055932;28;20231;-67
2023/05/26 04:24:23;;;;;;;10.77;4.95;;;11.40;99.90;;;;;;5055939;28;20177;-68
2023/05/26 04:26:52;;;;;;;8.75;4.20;;;11.30;99.90;;;;;;5055982;28;20181;-67
2023/05/26 04:29:20;;;;;;;8.35;3.78;;;11.50;99.90;;;;;;5055473;28;20209;-68
2023/05/26 04:31:46;;;;;;;10.85;3.70;;;11.40;99.90;;;;;;5054253;28;20191;-69
2023/05/26 04:34:11;;;;;;;8.75;3.20;;;11.50;99.90;;;;;;5054013;28;20239;-69
2023/05/26 04:36:40;;;;;;;7.82;2.45;;;11.50;99.90;;;;;;5055044;28;20280;-67
2023/05/26 04:39:09;;;;;;;6.68;3.13;;;11.60;99.90;;;;;;5052755;28;20181;-68
2023/05/26 04:41:35;;;;;;;7.05;3.20;;;11.60;99.90;;;;;;5055343;28;20279;-68
2023/05/26 04:44:01;;;;;;;10.43;3.10;;;11.60;99.90;;;;;;5061877;28;20201;-68
2023/05/26 04:46:28;;;;;;;10.50;3.10;;;11.60;99.90;;;;;;5041723;28;20243;-68
2023/05/26 04:48:58;;;;;;;8.50;2.88;;;11.70;99.90;;;;;;5042315;28;20362;-68
2023/05/26 04:51:26;;;;;;;9.23;2.97;;;11.70;99.90;;;;;;5051254;28;20376;-68
2023/05/26 04:53:54;;;;;;;6.95;2.50;;;11.70;99.90;;;;;;5055376;28;20177;-68
2023/05/26 04:56:21;;;;;;;8.98;2.92;;;11.80;99.90;;;;;;5049358;28;20497;-68
2023/05/26 04:58:47;;;;;;;10.43;2.88;;;11.80;99.90;;;;;;5042521;28;20177;-67
2023/05/26 05:01:13;;;;;;;8.32;2.40;;;11.90;99.90;;;;;;5051741;28;20198;-68
2023/05/26 05:03:42;;;;;;;9.02;3.03;;;11.90;99.90;;;;;;5043624;28;20181;-68
2023/05/26 05:06:11;;;;;;;7.75;2.88;;;11.90;99.90;;;;;;5054443;28;20201;-68
2023/05/26 05:08:42;;;;;;;9.35;2.90;;;12.00;99.90;;;;;;5054251;28;20215;-68
2023/05/26 05:11:12;;;;;;;9.52;2.92;;;12.00;99.90;;;;;;5072221;28;20205;-68
2023/05/26 05:13:37;;;;;;;9.05;2.53;;;12.10;99.90;;;;;;5055766;28;20234;-68
2023/05/26 05:16:03;;;;;;;8.13;2.78;;;12.10;99.90;;;;;;5055377;28;20264;-68
2023/05/26 05:18:31;;;;;;;8.20;2.75;;;12.10;99.90;;;;;;5047493;28;20193;-68
2023/05/26 05:20:57;;;;;;;11.07;3.40;;;12.10;99.90;;;;;;5054928;28;20185;-69
2023/05/26 05:23:27;;;;;;;5.40;2.25;;;12.10;99.90;;;;;;5054408;28;20187;-68
2023/05/26 05:25:53;;;;;;;7.82;2.97;;;12.10;99.90;;;;;;5048369;28;20235;-68
2023/05/26 05:28:18;;;;;;;8.52;2.92;;;12.10;99.90;;;;;;5054917;28;20173;-68
2023/05/26 05:30:44;;;;;;;7.55;2.83;;;12.00;99.90;;;;;;5054533;28;20204;-68
2023/05/26 05:33:12;;;;;;;8.55;2.90;;;12.10;99.90;;;;;;5052011;28;20197;-68
2023/05/26 05:35:37;;;;;;;7.63;2.70;;;12.10;99.90;;;;;;5052526;28;20173;-68
2023/05/26 05:38:03;;;;;;;10.88;2.92;;;12.10;99.90;;;;;;5053562;28;20177;-67
2023/05/26 05:40:33;;;;;;;8.50;3.20;;;12.20;99.90;;;;;;5062679;28;20193;-67
2023/05/26 05:43:00;;;;;;;10.85;3.28;;;12.20;99.90;;;;;;5054153;28;20173;-67
2023/05/26 05:45:29;;;;;;;9.38;3.50;;;12.20;99.90;;;;;;5053655;28;20228;-67
2023/05/26 05:47:55;;;;;;;8.05;2.65;;;12.30;99.90;;;;;;5053288;28;20197;-68
2023/05/26 05:50:20;;;;;;;9.52;2.95;;;12.30;99.90;;;;;;5049993;28;20194;-67
2023/05/26 05:52:46;;;;;;;6.20;2.45;;;12.30;99.90;;;;;;5054459;28;20169;-68
2023/05/26 05:55:15;;;;;;;5.72;2.30;;;12.40;99.90;;;;;;5053813;28;20197;-68
2023/05/26 05:57:40;;;;;;;7.78;3.08;;;12.40;99.90;;;;;;5050449;28;20174;-68
2023/05/26 06:00:12;;;;;;;10.02;2.70;;;12.50;99.90;;;;;;5054681;28;20185;-74
2023/05/26 06:02:38;;;;;;;12.48;3.08;;;12.50;99.90;;;;;;5057080;28;20213;-72
2023/05/26 06:05:06;;;;;;;7.43;2.70;;;12.50;99.90;;;;;;5053144;28;20177;-74
2023/05/26 06:07:32;;;;;;;7.35;2.75;;;12.50;99.90;;;;;;5054372;28;20234;-75
2023/05/26 06:09:58;;;;;;;8.43;2.63;;;12.60;99.90;;;;;;5053652;28;20216;-73
2023/05/26 06:12:24;;;;;;;11.90;3.10;;;12.60;99.90;;;;;;5050882;28;20169;-72
2023/05/26 06:14:52;;;;;;;8.50;3.58;;;12.60;99.90;;;;;;5053099;28;20372;-74
2023/05/26 06:17:20;;;;;;;11.70;3.20;;;12.70;99.90;;;;;;5050100;28;20197;-74
2023/05/26 06:19:50;;;;;;;6.50;2.90;;;12.60;99.90;;;;;;5053954;28;20173;-73
2023/05/26 06:22:16;;;;;;;11.40;3.28;;;12.60;99.90;;;;;;5039476;28;20198;-73
2023/05/26 06:24:44;;;;;;;12.25;3.38;;;12.70;99.90;;;;;;5053533;28;20205;-73
2023/05/26 06:27:10;;;;;;;9.07;3.30;;;12.70;99.90;;;;;;5048099;28;20177;-73
2023/05/26 06:29:35;;;;;;;11.90;3.58;;;12.70;99.90;;;;;;5047356;28;20232;-68
2023/05/26 06:32:01;;;;;;;9.13;3.50;;;12.80;99.90;;;;;;5054128;28;20173;-68
2023/05/26 06:34:29;;;;;;;8.15;2.97;;;12.80;99.90;;;;;;5053931;28;20196;-68
2023/05/26 06:36:55;;;;;;;9.13;3.33;;;12.80;99.90;;;;;;5053530;28;20243;-68
2023/05/26 06:39:23;;;;;;;7.70;3.40;;;12.80;99.90;;;;;;5053779;28;20166;-69
2023/05/26 06:41:53;;;;;;;8.38;3.80;;;12.90;99.90;;;;;;5054017;28;20276;-68
2023/05/26 06:44:19;;;;;;;7.60;3.42;;;12.90;99.90;;;;;;5053277;28;20181;-69
2023/05/26 06:46:45;;;;;;;8.20;3.60;;;12.90;99.90;;;;;;5053645;28;20207;-69
2023/05/26 06:49:10;;;;;;;8.32;3.08;;;13.00;99.90;;;;;;5053756;28;20276;-68
2023/05/26 06:51:40;;;;;;;8.27;3.45;;;13.00;99.90;;;;;;5054764;28;20181;-67
2023/05/26 06:54:08;;;;;;;10.10;4.10;;;13.10;99.90;;;;;;5053999;28;20201;-68
2023/05/26 06:56:37;;;;;;;8.88;3.63;;;13.10;99.90;;;;;;5053533;28;20180;-69
2023/05/26 06:59:06;;;;;;;7.15;3.45;;;13.20;99.90;;;;;;5050858;28;20176;-69
2023/05/26 07:01:31;;;;;;;6.82;3.40;;;13.20;99.90;;;;;;5046502;28;20247;-69
2023/05/26 07:03:57;;;;;;;10.13;4.38;;;13.30;99.90;;;;;;5046888;28;20177;-68
2023/05/26 07:06:22;;;;;;;11.55;3.90;;;13.30;99.90;;;;;;5033912;28;20446;-69
2023/05/26 07:08:48;;;;;;;12.25;4.00;;;13.30;99.90;;;;;;5050113;28;20232;-68
2023/05/26 07:11:16;;;;;;;11.90;4.03;;;13.30;99.90;;;;;;5054307;28;20180;-67
2023/05/26 07:13:42;;;;;;;11.65;4.43;;;13.40;99.90;;;;;;5053996;28;20173;-67
2023/05/26 07:16:08;;;;;;;11.48;3.95;;;13.50;99.90;;;;;;5056658;28;20193;-67
2023/05/26 07:18:33;;;;;;;9.18;3.55;;;13.50;99.90;;;;;;5057517;28;20177;-68
2023/05/26 07:20:59;;;;;;;15.40;4.20;;;13.60;99.90;;;;;;5057803;28;20180;-67
2023/05/26 07:23:27;;;;;;;10.98;4.15;;;13.60;99.90;;;;;;5057511;28;20335;-68
2023/05/26 07:25:52;;;;;;;10.20;3.97;;;13.60;99.90;;;;;;5057586;28;20216;-67
2023/05/26 07:28:23;;;;;;;12.23;3.92;;;13.70;99.90;;;;;;5057222;28;20244;-67
2023/05/26 07:30:48;;;;;;;7.72;3.72;;;13.80;99.90;;;;;;5057502;28;20177;-68
2023/05/26 07:33:14;;;;;;;11.10;4.85;;;13.80;99.90;;;;;;5053901;28;20189;-69
2023/05/26 07:35:42;;;;;;;10.77;3.72;;;13.80;99.90;;;;;;5057186;28;20271;-68
2023/05/26 07:38:08;;;;;;;9.35;4.32;;;13.90;99.90;;;;;;5057471;28;20184;-69
2023/05/26 07:40:36;;;;;;;11.38;4.38;;;13.90;99.90;;;;;;5057300;28;20249;-69
2023/05/26 07:43:03;;;;;;;11.15;4.22;;;14.00;99.90;;;;;;5057234;28;20173;-69
2023/05/26 07:45:28;;;;;;;14.43;4.72;;;14.00;99.90;;;;;;5056875;28;20270;-68
2023/05/26 07:47:54;;;;;;;12.57;4.68;;;14.10;99.90;;;;;;5057479;28;20173;-68
2023/05/26 07:50:22;;;;;;;10.35;4.20;;;14.10;99.90;;;;;;5057165;28;20209;-69
2023/05/26 07:52:50;;;;;;;9.68;3.75;;;14.20;99.90;;;;;;5057015;28;20240;-69
2023/05/26 07:55:15;;;;;;;11.63;4.18;;;14.20;99.90;;;;;;5054103;28;20293;-68
2023/05/26 07:57:43;;;;;;;9.90;4.15;;;14.30;99.90;;;;;;5057012;28;20216;-70
2023/05/26 08:00:09;;;;;;;10.23;4.53;;;14.40;99.90;;;;;;5056828;28;20268;-68
2023/05/26 08:02:35;;;;;;;10.73;4.80;;;14.40;99.90;;;;;;5056978;28;20169;-69
2023/05/26 08:05:01;;;;;;;10.38;3.75;;;14.50;99.90;;;;;;5056978;28;20177;-69
2023/05/26 08:07:26;;;;;;;11.93;4.35;;;14.50;99.90;;;;;;5057098;28;20173;-69
2023/05/26 08:09:52;;;;;;;8.63;3.90;;;14.60;99.90;;;;;;5056598;28;20209;-68
2023/05/26 08:12:20;;;;;;;11.68;4.35;;;14.60;99.90;;;;;;5056317;28;20202;-69
2023/05/26 08:14:46;;;;;;;12.23;4.55;;;14.70;99.90;;;;;;5044551;28;20178;-69
2023/05/26 08:17:12;;;;;;;13.02;4.30;;;14.80;99.90;;;;;;5037052;28;20206;-68
2023/05/26 08:19:37;;;;;;;12.70;4.82;;;14.80;99.90;;;;;;5050879;28;20258;-69
2023/05/26 08:22:03;;;;;;;14.90;5.18;;;14.80;99.90;;;;;;5056459;28;20261;-68
2023/05/26 08:24:29;;;;;;;12.02;5.10;;;14.90;99.90;;;;;;5053361;28;20205;-68
2023/05/26 08:26:54;;;;;;;13.93;5.05;;;14.90;99.90;;;;;;5055451;28;20197;-68
2023/05/26 08:29:24;;;;;;;11.50;4.22;;;15.00;99.90;;;;;;5056715;28;20295;-69
2023/05/26 08:31:50;;;;;;;11.27;4.40;;;15.00;99.90;;;;;;5056493;28;20215;-69
2023/05/26 08:34:19;;;;;;;14.38;5.00;;;15.10;99.90;;;;;;5056444;28;20273;-68
2023/05/26 08:36:46;;;;;;;11.05;4.50;;;15.10;99.90;;;;;;5057354;28;20239;-67
2023/05/26 08:39:12;;;;;;;12.18;5.18;;;15.20;99.90;;;;;;5056427;28;20209;-69
2023/05/26 08:41:48;;;;;;;15.05;5.90;;;15.20;99.90;;;;;;5056350;28;20280;-67
2023/05/26 08:44:17;;;;;;;14.07;5.18;;;15.30;99.90;;;;;;5056665;28;20231;-67
2023/05/26 08:46:45;;;;;;;11.30;4.45;;;15.30;99.90;;;;;;5043975;28;20201;-68
2023/05/26 08:49:14;;;;;;;13.82;4.55;;;15.40;99.90;;;;;;5053199;28;20189;-68
2023/05/26 08:51:44;;;;;;;10.88;5.00;;;15.50;99.90;;;;;;5056528;28;20181;-67
2023/05/26 08:54:10;;;;;;;10.93;4.25;;;15.70;99.90;;;;;;5055767;28;20194;-68
2023/05/26 08:56:36;;;;;;;12.50;5.05;;;15.80;99.90;;;;;;5039978;28;20184;-68
2023/05/26 08:59:08;;;;;;;11.10;4.85;;;15.90;99.90;;;;;;5056219;28;20263;-69
2023/05/26 09:01:34;;;;;;;10.82;4.28;;;16.00;99.90;;;;;;5047845;28;20248;-69
2023/05/26 09:04:00;;;;;;;11.88;4.43;;;16.10;99.90;;;;;;5055725;28;20235;-67
2023/05/26 09:06:26;;;;;;;10.38;4.28;;;16.20;99.90;;;;;;5055654;28;20177;-69
2023/05/26 09:08:52;;;;;;;11.88;4.80;;;16.30;99.90;;;;;;5053735;28;20213;-68
2023/05/26 09:11:27;;;;;;;10.25;4.40;;;16.40;99.90;;;;;;5055825;28;20169;-68
2023/05/26 09:14:02;;;;;;;12.30;4.43;;;16.40;99.90;;;;;;5035833;28;20208;-68
2023/05/26 09:16:28;;;;;;;11.73;4.38;;;16.50;99.90;;;;;;5043700;28;20188;-67
2023/05/26 09:19:02;;;;;;;10.00;4.72;;;16.60;99.90;;;;;;5055228;28;20421;-69
2023/05/26 09:21:29;;;;;;;14.75;4.38;;;16.60;99.90;;;;;;5056336;28;20224;-68
2023/05/26 09:23:56;;;;;;;10.98;4.13;;;16.70;99.90;;;;;;5056094;28;20177;-68
2023/05/26 09:26:34;;;;;;;15.65;5.45;;;16.80;99.90;;;;;;5055434;28;20180;-69
2023/05/26 09:29:01;;;;;;;10.60;4.78;;;17.00;99.90;;;;;;5055491;28;20196;-68
2023/05/26 09:31:41;;;;;;;13.38;4.50;;;17.10;99.90;;;;;;5056495;28;20243;-68
2023/05/26 09:34:08;;;;;;;13.38;4.43;;;17.20;99.90;;;;;;5055195;28;20284;-69
2023/05/26 09:36:35;;;;;;;14.02;4.75;;;17.30;99.90;;;;;;5055269;28;20161;-67
2023/05/26 09:39:01;;;;;;;11.10;4.35;;;17.40;99.90;;;;;;5041822;28;20192;-67
2023/05/26 09:41:47;;;;;;;13.98;4.80;;;17.50;99.90;;;;;;5049473;28;20303;-68
2023/05/26 09:44:15;;;;;;;11.30;4.55;;;17.60;99.90;;;;;;5054616;28;20268;-68
2023/05/26 09:46:42;;;;;;;12.90;4.70;;;17.70;99.90;;;;;;5054925;28;20181;-66
2023/05/26 09:49:18;;;;;;;11.45;4.57;;;17.80;99.90;;;;;;5054700;28;20288;-68
2023/05/26 09:51:48;;;;;;;9.95;3.92;;;17.90;99.90;;;;;;5055128;28;20192;-68
2023/05/26 09:54:13;;;;;;;9.32;4.15;;;18.00;99.90;;;;;;5054887;28;20169;-68
2023/05/26 09:57:09;;;;;;;12.57;4.38;;;18.10;99.90;;;;;;5054496;28;20204;-67
2023/05/26 09:59:38;;;;;;;15.13;4.70;;;18.20;99.90;;;;;;5049148;28;20181;-68
2023/05/26 10:02:23;;;;;;;12.30;4.28;;;18.30;99.90;;;;;;5054804;28;20205;-69
2023/05/26 10:04:50;;;;;;;13.77;4.38;;;18.30;99.90;;;;;;5054566;28;20200;-68
2023/05/26 10:07:18;;;;;;;11.45;4.40;;;18.40;99.90;;;;;;5054592;28;20193;-68
2023/05/26 10:09:50;;;;;;;10.43;3.97;;;18.50;99.90;;;;;;5054177;28;20205;-68
2023/05/26 10:12:19;;;;;;;10.02;4.07;;;18.70;99.90;;;;;;5054751;28;20270;-68
2023/05/26 10:14:48;;;;;;;12.68;4.28;;;18.70;99.90;;;;;;5054658;28;20251;-68
2023/05/26 10:17:14;;;;;;;12.00;4.78;;;18.80;99.90;;;;;;5047285;28;20177;-69
2023/05/26 10:19:43;;;;;;;10.48;4.13;;;18.90;99.90;;;;;;5044845;28;20181;-68
2023/05/26 10:22:13;;;;;;;14.98;4.63;;;19.00;99.90;;;;;;5050978;28;20248;-68
2023/05/26 10:24:46;;;;;;;12.45;5.30;;;19.10;99.90;;;;;;5054126;28;20178;-68
2023/05/26 10:27:51;;;;;;;13.30;5.03;;;19.20;99.90;;;;;;5054309;28;20173;-68
2023/05/26 10:30:20;;;;;;;11.10;4.43;;;19.40;99.90;;;;;;5053387;28;20205;-69
2023/05/26 10:32:57;;;;;;;8.27;4.03;;;19.60;99.90;;;;;;5053933;28;20180;-69
2023/05/26 10:35:26;;;;;;;11.23;4.60;;;19.90;99.90;;;;;;5054196;28;20173;-68
2023/05/26 10:38:03;;;;;;;13.13;4.75;;;20.20;99.90;;;;;;5054289;28;20181;-68
2023/05/26 10:40:45;;;;;;;7.40;3.80;;;20.50;99.90;;;;;;5053929;28;20169;-69
2023/05/26 10:43:24;;;;;;;9.70;3.75;;;20.60;99.90;;;;;;5053984;28;20205;-69
2023/05/26 10:46:00;;;;;;;12.45;4.68;;;20.80;99.90;;;;;;5034135;28;20166;-68
2023/05/26 10:48:41;;;;;;;9.07;4.05;;;21.00;99.90;;;;;;5048733;28;20241;-69
2023/05/26 10:51:10;;;;;;;9.20;4.10;;;21.20;99.90;;;;;;5053315;28;20173;-68
2023/05/26 10:53:40;;;;;;;10.52;4.40;;;21.40;99.90;;;;;;5054066;28;20180;-67
2023/05/26 10:56:12;;;;;;;11.05;4.32;;;21.50;99.90;;;;;;5053860;28;20208;-68
2023/05/26 10:58:44;;;;;;;11.48;4.35;;;21.50;99.90;;;;;;5039884;28;20182;-68
2023/05/26 11:01:12;;;;;;;10.40;4.20;;;21.60;99.90;;;;;;5049720;28;20247;-68
2023/05/26 11:03:42;;;;;;;10.27;4.28;;;21.80;99.90;;;;;;5053317;28;20207;-67
2023/05/26 11:06:11;;;;;;;11.25;4.57;;;22.00;99.90;;;;;;5053874;28;20209;-68
2023/05/26 11:08:49;;;;;;;13.70;5.28;;;22.10;99.90;;;;;;5053277;28;20201;-68
2023/05/26 11:11:30;;;;;;;7.70;3.97;;;22.10;99.90;;;;;;5053112;28;20360;-68
2023/05/26 11:14:09;;;;;;;12.85;4.03;;;22.10;99.90;;;;;;5053768;28;20188;-69
2023/05/26 11:16:40;;;;;;;9.82;4.65;;;22.10;99.90;;;;;;5053673;28;20379;-68
2023/05/26 11:19:07;;;;;;;9.98;4.22;;;22.10;99.90;;;;;;5053084;28;20184;-68
2023/05/26 11:21:34;;;;;;;10.18;4.78;;;22.20;99.90;;;;;;5053844;28;20169;-67
2023/05/26 11:24:02;;;;;;;13.30;4.70;;;22.20;99.90;;;;;;5053361;28;20216;-69
2023/05/26 11:26:32;;;;;;;9.30;3.65;;;22.30;99.90;;;;;;5053730;28;20219;-69
2023/05/26 11:29:03;;;;;;;11.88;4.70;;;22.30;99.90;;;;;;5034003;28;20225;-68
2023/05/26 11:31:29;;;;;;;12.95;4.82;;;22.30;99.90;;;;;;5050448;28;20232;-66
2023/05/26 11:33:57;;;;;;;9.15;4.35;;;22.30;99.90;;;;;;5053173;28;20185;-66
2023/05/26 11:36:23;;;;;;;10.93;3.78;;;22.30;99.90;;;;;;5053340;28;20239;-67
2023/05/26 11:38:59;;;;;;;11.45;4.10;;;22.30;99.90;;;;;;5053076;28;20251;-67
2023/05/26 11:41:26;;;;;;;12.07;4.10;;;22.30;99.90;;;;;;5054167;28;20180;-67
2023/05/26 11:43:56;;;;;;;10.90;4.13;;;22.20;99.90;;;;;;5052715;28;20225;-67
2023/05/26 11:46:23;;;;;;;10.68;3.80;;;22.20;99.90;;;;;;5053419;28;20173;-67
2023/05/26 11:48:50;;;;;;;12.68;3.95;;;22.20;99.90;;;;;;5052747;28;20283;-67
2023/05/26 11:51:17;;;;;;;11.30;3.72;;;22.20;99.90;;;;;;5053035;28;20205;-66
2023/05/26 11:53:45;;;;;;;11.13;4.43;;;22.30;99.90;;;;;;5053149;28;20258;-66
2023/05/26 11:56:17;;;;;;;9.77;3.63;;;22.40;99.90;;;;;;5049323;28;20178;-67
2023/05/26 11:58:54;;;;;;;12.73;4.72;;;22.40;99.90;;;;;;5052961;28;20268;-65
2023/05/26 12:01:21;;;;;;;12.32;3.45;;;22.50;99.90;;;;;;5066241;28;20231;-67
2023/05/26 12:03:50;;;;;;;7.80;3.60;;;22.60;99.90;;;;;;5037318;28;20181;-66
2023/05/26 12:06:15;;;;;;;9.82;3.80;;;22.80;99.90;;;;;;5052282;28;20327;-67
2023/05/26 12:08:51;;;;;;;8.32;3.80;;;22.90;99.90;;;;;;5053115;28;20305;-67
2023/05/26 12:11:32;;;;;;;12.02;4.05;;;23.00;99.90;;;;;;5037424;28;20308;-67
2023/05/26 12:14:03;;;;;;;9.13;3.90;;;23.10;99.90;;;;;;5046612;28;20247;-67
2023/05/26 12:16:50;;;;;;;11.40;4.40;;;23.20;99.90;;;;;;5057390;28;20173;-67
2023/05/26 12:19:21;;;;;;;8.88;3.38;;;23.30;99.90;;;;;;5053379;28;20198;-66
2023/05/26 12:21:51;;;;;;;7.82;3.60;;;23.40;99.90;;;;;;5054998;28;20177;-67
2023/05/26 12:24:36;;;;;;;9.93;3.97;;;23.40;99.90;;;;;;5056423;28;20173;-66
2023/05/26 12:27:12;;;;;;;8.98;3.22;;;23.40;99.90;;;;;;5053311;28;20224;-65
2023/05/26 12:29:41;;;;;;;8.05;3.28;;;23.50;99.90;;;;;;5056264;28;20216;-66
2023/05/26 12:32:08;;;;;;;7.65;3.35;;;23.60;99.90;;;;;;5055492;28;20197;-64
2023/05/26 12:34:35;;;;;;;6.43;3.03;;;23.80;99.90;;;;;;5057553;28;20169;-67
2023/05/26 12:37:03;;;;;;;7.55;3.30;;;24.00;99.90;;;;;;5056182;28;20260;-67
2023/05/26 12:39:28;;;;;;;7.65;3.47;;;24.20;99.90;;;;;;5050531;28;20201;-67
2023/05/26 12:41:55;;;;;;;9.88;3.13;;;24.40;99.90;;;;;;5054539;28;20186;-67
2023/05/26 12:44:21;;;;;;;8.70;2.88;;;24.50;99.90;;;;;;5047983;28;20192;-66
2023/05/26 12:46:48;;;;;;;7.65;3.30;;;24.50;99.90;;;;;;5056021;28;20213;-65
2023/05/26 12:49:14;;;;;;;8.82;3.38;;;24.60;99.90;;;;;;5056547;28;20201;-67
2023/05/26 12:51:41;;;;;;;10.85;3.65;;;24.70;99.90;;;;;;5056230;28;20201;-66